Time;durP1;ratioP1;P1;durP2;ratioP2;P2;SDS_P1;SDS_P2;PMS_P1;PMS_P2;Temp;Humidity;BMP_temperature;BMP_pressure;BME280_temperature;BME280_humidity;BME280_pressure;Samples;Min_cycle;Max_cycle;Signal;HPM_P1;HPM_P2
2021/06/07 00:01:09;;;;;;;78.57;23.67;;;;;;;13.17;100.00;94237.44;5074039;28;20285;-79
2021/06/07 00:03:36;;;;;;;42.80;17.48;;;;;;;13.17;100.00;94232.19;5073770;28;20661;-79
2021/06/07 00:06:02;;;;;;;47.22;19.25;;;;;;;13.19;100.00;94229.34;5073254;28;20198;-79
2021/06/07 00:08:30;;;;;;;326.27;28.25;;;;;;;13.18;100.00;94231.19;5073808;28;20226;-80
2021/06/07 00:10:56;;;;;;;338.48;31.33;;;;;;;13.17;100.00;94226.94;5073898;28;20248;-79
2021/06/07 00:13:24;;;;;;;435.55;33.08;;;;;;;13.19;100.00;94229.34;5073477;28;20202;-80
2021/06/07 00:15:51;;;;;;;605.33;38.25;;;;;;;13.15;100.00;94228.97;5073610;28;20199;-81
2021/06/07 00:18:18;;;;;;;726.45;41.65;;;;;;;13.11;100.00;94227.78;5073501;28;20201;-81
2021/06/07 00:20:46;;;;;;;750.93;42.00;;;;;;;13.08;100.00;94222.94;5072875;28;20199;-79
2021/06/07 00:23:12;;;;;;;434.60;32.83;;;;;;;13.10;100.00;94221.69;5073398;28;20206;-80
2021/06/07 00:25:40;;;;;;;600.72;40.75;;;;;;;13.07;100.00;94218.69;5073531;28;20206;-78
2021/06/07 00:28:07;;;;;;;658.38;41.83;;;;;;;13.08;100.00;94218.50;5073305;28;20284;-79
2021/06/07 00:30:34;;;;;;;939.97;56.60;;;;;;;13.08;100.00;94222.94;5073327;28;20203;-82
2021/06/07 00:33:00;;;;;;;521.47;34.27;;;;;;;13.09;100.00;94219.28;5073160;28;20210;-79
2021/06/07 00:35:27;;;;;;;412.95;36.47;;;;;;;13.09;100.00;94227.16;5073358;28;20194;-80
2021/06/07 00:37:53;;;;;;;721.20;51.65;;;;;;;13.07;100.00;94223.94;5071977;28;20435;-80
2021/06/07 00:40:22;;;;;;;412.02;38.53;;;;;;;13.10;100.00;94223.53;5073421;28;20198;-81
2021/06/07 00:42:50;;;;;;;271.45;32.20;;;;;;;13.07;100.00;94227.38;5073484;28;20199;-79
2021/06/07 00:45:20;;;;;;;473.60;34.80;;;;;;;13.10;100.00;94228.78;5075754;28;20195;-79
2021/06/07 00:47:46;;;;;;;755.22;46.10;;;;;;;13.07;100.00;94227.38;5072775;28;20239;-80
2021/06/07 00:50:25;;;;;;;658.87;43.97;;;;;;;13.08;100.00;94221.13;5073203;28;20210;-80
2021/06/07 00:53:02;;;;;;;399.58;37.63;;;;;;;13.09;100.00;94219.28;5073210;28;20206;-81
2021/06/07 00:55:29;;;;;;;722.55;47.20;;;;;;;13.09;100.00;94214.88;5073171;28;20245;-79
2021/06/07 00:57:57;;;;;;;965.37;58.33;;;;;;;13.02;100.00;94224.53;5072871;28;20570;-80
2021/06/07 01:00:25;;;;;;;282.93;31.97;;;;;;;13.05;100.00;94218.09;5073085;28;20706;-79
2021/06/07 01:02:52;;;;;;;918.20;55.93;;;;;;;13.02;100.00;94221.13;5073024;28;20661;-79
2021/06/07 01:05:18;;;;;;;690.97;47.33;;;;;;;13.06;100.00;94230.22;5073033;28;20198;-79
2021/06/07 01:07:44;;;;;;;548.53;46.23;;;;;;;13.04;100.00;94226.97;5072997;28;20589;-80
2021/06/07 01:10:12;;;;;;;704.10;47.77;;;;;;;13.00;100.00;94217.91;5072876;28;20198;-80
2021/06/07 01:12:38;;;;;;;390.53;41.13;;;;;;;13.02;100.00;94221.13;5072773;28;20203;-79
2021/06/07 01:15:07;;;;;;;812.20;53.57;;;;;;;13.01;100.00;94219.53;5072960;28;20736;-78
2021/06/07 01:17:33;;;;;;;868.77;52.60;;;;;;;13.00;100.00;94213.47;5072846;28;20562;-78
2021/06/07 01:19:59;;;;;;;821.47;51.77;;;;;;;13.01;100.00;94216.91;5072841;28;20213;-79
2021/06/07 01:22:26;;;;;;;664.70;48.67;;;;;;;13.01;100.00;94214.28;5072705;28;20194;-79
2021/06/07 01:24:52;;;;;;;856.33;52.70;;;;;;;13.02;100.00;94211.44;5072507;28;20234;-80
2021/06/07 01:27:18;;;;;;;117.45;31.60;;;;;;;13.04;100.00;94217.31;5072466;28;20237;-79
2021/06/07 01:29:45;;;;;;;629.40;47.10;;;;;;;13.05;100.00;94207.63;5072771;28;20198;-80
2021/06/07 01:32:11;;;;;;;861.57;57.33;;;;;;;13.03;100.00;94207.03;5072737;28;20327;-78
2021/06/07 01:34:37;;;;;;;434.67;39.70;;;;;;;13.02;100.00;94203.56;5076387;28;20238;-79
2021/06/07 01:37:04;;;;;;;490.80;44.87;;;;;;;13.04;100.00;94208.63;5076631;28;20198;-79
2021/06/07 01:39:32;;;;;;;339.93;36.70;;;;;;;13.04;100.00;94198.94;5076655;28;20225;-79
2021/06/07 01:41:58;;;;;;;353.40;38.93;;;;;;;13.04;100.00;94200.75;5076517;28;20234;-79
2021/06/07 01:44:24;;;;;;;497.90;43.27;;;;;;;12.98;100.00;94196.34;5076433;28;20677;-82
2021/06/07 01:46:50;;;;;;;276.77;36.25;;;;;;;12.98;100.00;94201.59;5076578;28;20266;-81
2021/06/07 01:49:16;;;;;;;509.83;44.50;;;;;;;13.00;100.00;94195.13;5076549;28;20210;-80
2021/06/07 01:51:43;;;;;;;510.00;42.03;;;;;;;12.96;100.00;94197.34;5076190;28;20210;-80
2021/06/07 01:54:09;;;;;;;610.47;43.93;;;;;;;13.00;100.00;94199.56;5076217;28;20539;-80
2021/06/07 01:56:36;;;;;;;144.13;30.40;;;;;;;13.00;100.00;94191.69;5076460;28;20234;-80
2021/06/07 01:59:02;;;;;;;161.23;32.93;;;;;;;12.98;100.00;94196.34;5076337;28;20207;-80
2021/06/07 02:01:29;;;;;;;400.30;38.20;;;;;;;12.95;100.00;94187.84;5076395;28;20214;-81
2021/06/07 02:03:56;;;;;;;526.53;42.30;;;;;;;12.98;100.00;94184.03;5076224;28;20203;-80
2021/06/07 02:06:24;;;;;;;260.80;36.13;;;;;;;12.92;100.00;94190.09;5075998;28;20796;-80
2021/06/07 02:08:50;;;;;;;134.93;31.70;;;;;;;12.93;100.00;94183.84;5075961;28;20262;-81
2021/06/07 02:11:20;;;;;;;86.90;24.77;;;;;;;12.92;100.00;94184.84;5076176;28;20226;-80
2021/06/07 02:13:48;;;;;;;83.60;24.40;;;;;;;12.91;100.00;94180.63;5076040;28;20195;-81
2021/06/07 02:16:18;;;;;;;71.57;20.70;;;;;;;12.88;100.00;94184.44;5075822;28;20203;-79
2021/06/07 02:18:45;;;;;;;63.50;19.27;;;;;;;12.88;100.00;94184.44;5075968;28;20203;-80
2021/06/07 02:21:12;;;;;;;56.30;17.13;;;;;;;12.89;100.00;94183.47;5075782;28;20603;-81
2021/06/07 02:23:39;;;;;;;46.53;14.33;;;;;;;12.91;100.00;94193.72;5075483;28;20292;-79
2021/06/07 02:26:07;;;;;;;30.13;10.73;;;;;;;12.88;100.00;94187.06;5075790;28;20198;-82
2021/06/07 02:28:33;;;;;;;29.30;10.27;;;;;;;12.88;100.00;94187.06;5075671;28;20302;-79
2021/06/07 02:31:01;;;;;;;29.52;10.30;;;;;;;12.86;100.00;94183.84;5075748;28;20277;-80
2021/06/07 02:33:28;;;;;;;27.03;9.87;;;;;;;12.89;100.00;94182.63;5075595;28;20228;-85
2021/06/07 02:35:54;;;;;;;28.97;9.47;;;;;;;12.87;100.00;94185.47;5075387;28;20658;-81
2021/06/07 02:38:20;;;;;;;33.20;10.27;;;;;;;12.86;100.00;94188.31;5075566;28;20203;-80
2021/06/07 02:40:50;;;;;;;29.00;9.43;;;;;;;12.85;100.00;94187.47;5076987;28;20210;-80
2021/06/07 02:43:18;;;;;;;21.90;8.50;;;;;;;12.85;100.00;94182.25;5075365;28;20198;-81
2021/06/07 02:45:44;;;;;;;23.17;8.43;;;;;;;12.88;100.00;94187.06;5075226;28;20242;-80
2021/06/07 02:48:11;;;;;;;22.03;7.87;;;;;;;12.86;100.00;94189.09;5075298;28;20223;-81
2021/06/07 02:50:41;;;;;;;20.03;7.37;;;;;;;12.88;100.00;94188.91;5075127;28;20199;-80
2021/06/07 02:53:08;;;;;;;20.13;8.03;;;;;;;12.85;100.00;94186.69;5075927;28;20650;-80
2021/06/07 02:55:36;;;;;;;23.60;8.50;;;;;;;12.86;100.00;94185.69;5075334;28;20203;-80
2021/06/07 02:58:03;;;;;;;18.98;7.65;;;;;;;12.85;100.00;94190.09;5075139;28;20217;-80
2021/06/07 03:00:31;;;;;;;19.07;7.47;;;;;;;12.84;100.00;94182.44;5075355;28;20199;-80
2021/06/07 03:02:58;;;;;;;18.73;7.57;;;;;;;12.85;100.00;94187.47;5075053;28;20654;-80
2021/06/07 03:05:27;;;;;;;18.50;7.37;;;;;;;12.85;100.00;94184.06;5075108;28;20206;-81
2021/06/07 03:07:53;;;;;;;22.30;7.63;;;;;;;12.84;100.00;94185.88;5075041;28;20318;-80
2021/06/07 03:10:19;;;;;;;17.70;6.50;;;;;;;12.87;100.00;94185.47;5074875;28;20669;-80
2021/06/07 03:12:45;;;;;;;16.47;6.33;;;;;;;12.88;100.00;94186.28;5074926;28;20227;-80
2021/06/07 03:15:14;;;;;;;19.00;6.13;;;;;;;12.88;100.00;94191.53;5074885;28;20203;-80
2021/06/07 03:17:40;;;;;;;18.52;8.02;;;;;;;12.88;100.00;94192.31;5073728;28;20909;-81
2021/06/07 03:20:07;;;;;;;19.43;7.70;;;;;;;12.87;100.00;94189.91;5074928;28;20198;-79
2021/06/07 03:22:35;;;;;;;17.45;6.72;;;;;;;12.87;100.00;94189.91;5074675;28;20661;-81
2021/06/07 03:25:02;;;;;;;13.17;5.80;;;;;;;12.93;100.00;94192.50;5074503;28;20234;-80
2021/06/07 03:27:28;;;;;;;20.20;7.68;;;;;;;12.87;100.00;94195.97;5074062;28;20454;-80
2021/06/07 03:29:54;;;;;;;15.15;5.90;;;;;;;12.87;100.00;94193.34;5074533;28;20251;-82
2021/06/07 03:32:20;;;;;;;18.93;7.20;;;;;;;12.88;100.00;94186.28;5074393;28;20203;-82
2021/06/07 03:34:46;;;;;;;21.70;7.72;;;;;;;12.88;100.00;94194.13;5074660;28;20199;-78
2021/06/07 03:37:12;;;;;;;17.73;6.83;;;;;;;12.86;100.00;94189.09;5074547;28;20577;-80
2021/06/07 03:39:41;;;;;;;16.50;6.53;;;;;;;12.86;100.00;94189.09;5074219;28;20199;-80
2021/06/07 03:42:07;;;;;;;23.07;7.03;;;;;;;12.89;100.00;94190.50;5074165;28;20207;-79
2021/06/07 03:44:33;;;;;;;23.97;7.83;;;;;;;12.92;100.00;94187.47;5074220;28;20203;-79
2021/06/07 03:47:00;;;;;;;17.43;6.57;;;;;;;12.95;100.00;94195.72;5074246;28;20226;-80
2021/06/07 03:49:26;;;;;;;16.17;5.57;;;;;;;12.92;100.00;94190.91;5074301;28;20206;-79
2021/06/07 03:51:52;;;;;;;15.83;5.53;;;;;;;12.95;100.00;94187.84;5074091;28;20206;-79
2021/06/07 03:54:18;;;;;;;16.00;5.70;;;;;;;12.95;100.00;94187.84;5074171;28;20637;-80
2021/06/07 03:56:45;;;;;;;16.40;5.03;;;;;;;12.96;100.00;94189.47;5073229;28;20696;-80
2021/06/07 03:59:12;;;;;;;16.77;6.57;;;;;;;12.95;100.00;94192.31;5073247;28;20444;-79
2021/06/07 04:01:38;;;;;;;13.70;5.53;;;;;;;12.96;100.00;94186.88;5073909;28;20649;-79
2021/06/07 04:04:04;;;;;;;16.38;5.22;;;;;;;12.99;100.00;94190.91;5073933;28;20256;-79
2021/06/07 04:06:30;;;;;;;9.27;3.70;;;;;;;13.01;100.00;94195.94;5073872;28;20211;-79
2021/06/07 04:08:58;;;;;;;12.55;4.72;;;;;;;13.03;100.00;94186.06;5073567;28;20454;-80
2021/06/07 04:11:25;;;;;;;9.57;4.20;;;;;;;13.01;100.00;94188.06;5073866;28;20238;-79
2021/06/07 04:13:52;;;;;;;9.52;4.18;;;;;;;12.96;100.00;94180.81;5073607;28;20222;-80
2021/06/07 04:16:19;;;;;;;12.50;5.17;;;;;;;12.95;100.00;94185.25;5073682;28;20209;-80
2021/06/07 04:18:45;;;;;;;12.45;4.45;;;;;;;12.97;100.00;94187.66;5073622;28;20225;-79
2021/06/07 04:21:11;;;;;;;9.90;4.00;;;;;;;13.00;100.00;94181.22;5073734;28;20256;-79
2021/06/07 04:23:37;;;;;;;12.17;5.50;;;;;;;12.99;100.00;94183.03;5073519;28;20321;-79
2021/06/07 04:26:04;;;;;;;12.13;4.47;;;;;;;12.95;100.00;94187.84;5073518;28;20202;-80
2021/06/07 04:28:32;;;;;;;12.33;4.77;;;;;;;12.94;100.00;94188.09;5073444;28;20227;-79
2021/06/07 04:31:00;;;;;;;12.45;4.47;;;;;;;12.95;100.00;94187.06;5073592;28;20199;-79
2021/06/07 04:33:26;;;;;;;11.37;4.83;;;;;;;12.92;100.00;94183.06;5073268;28;20203;-78
2021/06/07 04:35:52;;;;;;;12.27;4.70;;;;;;;12.90;100.00;94185.03;5073336;28;20332;-80
2021/06/07 04:38:18;;;;;;;11.60;4.50;;;;;;;12.94;100.00;94191.50;5073280;28;20285;-79
2021/06/07 04:40:44;;;;;;;11.57;4.90;;;;;;;12.95;100.00;94182.63;5073100;28;20209;-79
2021/06/07 04:43:12;;;;;;;17.20;6.07;;;;;;;12.96;100.00;94184.25;5075536;28;20202;-79
2021/06/07 04:45:40;;;;;;;16.17;6.10;;;;;;;13.01;100.00;94175.78;5073362;28;20206;-79
2021/06/07 04:48:09;;;;;;;18.73;5.93;;;;;;;13.00;100.00;94179.38;5073138;28;20230;-79
2021/06/07 04:50:35;;;;;;;21.07;7.60;;;;;;;12.92;100.00;94183.06;5073080;28;20217;-79
2021/06/07 04:53:03;;;;;;;28.00;8.77;;;;;;;12.95;100.00;94180.00;5073285;28;20198;-80
2021/06/07 04:55:32;;;;;;;26.48;9.00;;;;;;;13.04;100.00;94175.38;5072934;28;20199;-79
2021/06/07 04:58:00;;;;;;;25.02;8.90;;;;;;;13.04;100.00;94175.38;5073250;28;20202;-79
2021/06/07 05:00:27;;;;;;;31.38;9.98;;;;;;;13.03;100.00;94193.91;5073106;28;20206;-79
2021/06/07 05:02:54;;;;;;;26.50;8.67;;;;;;;13.05;100.00;94178.78;5073003;28;20207;-79
2021/06/07 05:05:22;;;;;;;40.00;12.90;;;;;;;12.98;100.00;94178.00;5073007;28;20650;-81
2021/06/07 05:07:51;;;;;;;45.43;12.27;;;;;;;13.02;100.00;94176.56;5072670;28;20620;-79
2021/06/07 05:10:18;;;;;;;45.28;13.65;;;;;;;13.00;100.00;94178.59;5072892;28;20199;-80
2021/06/07 05:12:44;;;;;;;61.38;14.70;;;;;;;13.01;100.00;94186.25;5073006;28;20208;-80
2021/06/07 05:15:12;;;;;;;47.63;14.82;;;;;;;13.02;100.00;94187.03;5073055;28;20241;-81
2021/06/07 05:17:38;;;;;;;32.60;13.07;;;;;;;13.04;100.00;94192.88;5072740;28;20206;-81
2021/06/07 05:20:06;;;;;;;99.15;16.85;;;;;;;12.96;100.00;94184.25;5072870;28;20577;-81
2021/06/07 05:22:34;;;;;;;157.40;19.03;;;;;;;13.00;100.00;94199.56;5072722;28;20206;-81
2021/06/07 05:25:00;;;;;;;88.22;15.82;;;;;;;12.94;100.00;94196.75;5072608;28;20235;-81
2021/06/07 05:27:26;;;;;;;49.27;15.60;;;;;;;12.98;100.00;94196.34;5072777;28;20226;-81
2021/06/07 05:29:52;;;;;;;64.65;18.20;;;;;;;12.99;100.00;94195.31;5072621;28;20573;-80
2021/06/07 05:32:18;;;;;;;85.60;18.55;;;;;;;13.00;100.00;94199.56;5072704;28;20316;-80
2021/06/07 05:34:44;;;;;;;48.90;18.07;;;;;;;13.08;100.00;94199.34;5072030;28;20957;-80
2021/06/07 05:37:10;;;;;;;57.00;17.90;;;;;;;13.09;100.00;94203.56;5072558;28;20224;-80
2021/06/07 05:39:38;;;;;;;55.90;17.35;;;;;;;13.01;100.00;94196.75;5072799;28;20194;-79
2021/06/07 05:42:05;;;;;;;48.33;15.33;;;;;;;13.06;100.00;94201.38;5072628;28;20268;-80
2021/06/07 05:44:31;;;;;;;48.60;15.87;;;;;;;12.96;100.00;94202.59;5072450;28;20601;-80
2021/06/07 05:46:57;;;;;;;61.28;16.05;;;;;;;12.96;100.00;94199.97;5072371;28;20207;-80
2021/06/07 05:49:23;;;;;;;63.70;17.13;;;;;;;12.95;100.00;94195.72;5072556;28;20650;-81
2021/06/07 05:51:49;;;;;;;59.20;16.98;;;;;;;12.99;100.00;94200.56;5072369;28;20195;-80
2021/06/07 05:54:15;;;;;;;50.33;15.87;;;;;;;13.04;100.00;94195.50;5072714;28;20199;-81
2021/06/07 05:56:42;;;;;;;46.47;15.90;;;;;;;13.04;100.00;94195.50;5072474;28;20199;-81
2021/06/07 05:59:08;;;;;;;51.13;14.67;;;;;;;12.97;100.00;94203.38;5072470;28;20199;-81
2021/06/07 06:01:35;;;;;;;49.87;14.27;;;;;;;13.06;100.00;94206.63;5072318;28;20195;-81
2021/06/07 06:04:02;;;;;;;37.90;12.67;;;;;;;13.11;100.00;94204.19;5072456;28;20244;-80
2021/06/07 06:06:28;;;;;;;36.63;12.30;;;;;;;13.11;100.00;94206.81;5072372;28;20195;-80
2021/06/07 06:08:54;;;;;;;34.25;9.80;;;;;;;13.09;100.00;94209.63;5072378;28;20250;-80
2021/06/07 06:11:22;;;;;;;27.08;9.93;;;;;;;13.19;100.00;94211.81;5072349;28;20207;-80
2021/06/07 06:13:50;;;;;;;30.25;10.35;;;;;;;13.26;100.00;94207.38;5072263;28;20225;-81
2021/06/07 06:16:17;;;;;;;26.87;9.43;;;;;;;13.24;100.00;94209.38;5072332;28;20203;-81
2021/06/07 06:18:43;;;;;;;23.20;8.47;;;;;;;13.23;100.00;94215.63;5072562;28;20213;-81
2021/06/07 06:21:09;;;;;;;19.30;7.90;;;;;;;13.27;100.00;94216.03;5075790;28;20198;-81
2021/06/07 06:23:35;;;;;;;24.42;8.07;;;;;;;13.27;100.00;94211.59;5075729;28;20273;-81
2021/06/07 06:26:03;;;;;;;21.17;8.03;;;;;;;13.31;100.00;94218.03;5075887;28;20195;-80
2021/06/07 06:28:31;;;;;;;23.38;8.60;;;;;;;13.44;100.00;94217.22;5075678;28;20230;-81
2021/06/07 06:30:58;;;;;;;24.17;8.32;;;;;;;13.51;100.00;94222.44;5075561;28;20684;-81
2021/06/07 06:33:24;;;;;;;20.10;7.80;;;;;;;13.72;100.00;94217.91;5075482;28;20202;-81
2021/06/07 06:35:50;;;;;;;17.70;7.50;;;;;;;13.59;100.00;94216.97;5075757;28;20719;-81
2021/06/07 06:38:16;;;;;;;14.55;6.00;;;;;;;13.65;100.00;94218.75;5075765;28;20199;-82
2021/06/07 06:40:43;;;;;;;14.82;5.45;;;;;;;13.74;100.00;94221.13;5075419;28;20202;-82
2021/06/07 06:43:09;;;;;;;13.27;6.05;;;;;;;13.66;100.00;94225.63;5075462;28;20205;-82
2021/06/07 06:45:35;;;;;;;17.55;6.32;;;;;;;13.61;100.00;94216.78;5075455;28;20203;-82
2021/06/07 06:48:05;;;;;;;15.80;6.07;;;;;;;13.65;100.00;94223.19;5075155;28;20226;-80
2021/06/07 06:50:34;;;;;;;14.60;5.30;;;;;;;13.45;100.00;94228.53;5078014;28;20668;-81
2021/06/07 06:53:01;;;;;;;11.35;5.80;;;;;;;13.39;100.00;94224.09;5075608;28;20226;-81
2021/06/07 06:55:27;;;;;;;17.58;5.97;;;;;;;13.40;100.00;94225.72;5075338;28;20203;-81
2021/06/07 06:57:53;;;;;;;15.63;6.22;;;;;;;13.37;100.00;94229.53;5075287;28;20290;-82
2021/06/07 07:00:20;;;;;;;14.93;5.78;;;;;;;13.32;100.00;94230.19;5075049;28;20199;-82
2021/06/07 07:02:46;;;;;;;16.38;6.45;;;;;;;13.27;100.00;94227.34;5075359;28;20206;-85
2021/06/07 07:05:13;;;;;;;15.43;6.35;;;;;;;13.30;100.00;94221.66;5075196;28;20213;-81
2021/06/07 07:07:39;;;;;;;16.85;6.90;;;;;;;13.39;100.00;94231.97;5075099;28;20226;-82
2021/06/07 07:10:07;;;;;;;21.20;7.22;;;;;;;13.40;100.00;94230.97;5074955;28;20684;-81
2021/06/07 07:12:33;;;;;;;16.88;6.60;;;;;;;13.40;100.00;94225.72;5074987;28;20206;-81
2021/06/07 07:14:59;;;;;;;15.25;6.32;;;;;;;13.39;100.00;94232.78;5074779;28;20207;-80
2021/06/07 07:17:25;;;;;;;14.85;6.13;;;;;;;13.52;100.00;94226.66;5074707;28;20202;-81
2021/06/07 07:19:51;;;;;;;14.50;5.80;;;;;;;13.56;100.00;94233.13;5074964;28;20589;-81
2021/06/07 07:22:18;;;;;;;13.10;5.22;;;;;;;13.67;100.00;94237.72;5074828;28;20605;-81
2021/06/07 07:24:46;;;;;;;10.55;4.40;;;;;;;13.67;100.00;94229.88;5074497;28;20615;-80
2021/06/07 07:27:14;;;;;;;10.10;4.75;;;;;;;13.58;100.00;94232.94;5074694;28;20206;-81
2021/06/07 07:29:40;;;;;;;12.80;5.03;;;;;;;13.58;100.00;94238.97;5074174;28;20238;-81
2021/06/07 07:32:08;;;;;;;9.25;4.85;;;;;;;13.72;100.00;94244.97;5073624;28;20199;-80
2021/06/07 07:34:34;;;;;;;12.15;5.10;;;;;;;13.62;100.00;94240.19;5074896;28;20202;-82
2021/06/07 07:37:00;;;;;;;11.65;4.95;;;;;;;13.57;100.00;94247.03;5074317;28;20784;-81
2021/06/07 07:39:28;;;;;;;11.70;5.77;;;;;;;13.65;100.00;94246.81;5074355;28;20358;-81
2021/06/07 07:41:54;;;;;;;12.93;5.90;;;;;;;13.56;100.00;94246.25;5074289;28;20664;-79
2021/06/07 07:44:20;;;;;;;13.98;6.38;;;;;;;13.63;100.00;94247.03;5074154;28;20206;-79
2021/06/07 07:46:47;;;;;;;16.38;6.22;;;;;;;13.52;100.00;94247.66;5074421;28;20203;-80
2021/06/07 07:49:13;;;;;;;16.70;5.97;;;;;;;13.59;100.00;94252.88;5073692;28;20697;-82
2021/06/07 07:51:39;;;;;;;16.13;7.20;;;;;;;13.55;100.00;94243.81;5074212;28;20199;-80
2021/06/07 07:54:06;;;;;;;16.17;6.57;;;;;;;13.65;100.00;94250.22;5074170;28;20199;-80
2021/06/07 07:56:34;;;;;;;16.50;7.25;;;;;;;13.59;100.00;94253.72;5073933;28;20206;-81
2021/06/07 07:59:01;;;;;;;12.88;6.55;;;;;;;13.72;100.00;94258.09;5073886;28;20214;-81
2021/06/07 08:01:27;;;;;;;14.48;5.63;;;;;;;13.72;100.00;94252.84;5073981;28;20223;-80
2021/06/07 08:03:53;;;;;;;16.38;6.47;;;;;;;13.64;100.00;94250.47;5074019;28;20255;-80
2021/06/07 08:06:19;;;;;;;17.25;6.90;;;;;;;13.63;100.00;94247.03;5073944;28;20642;-82
2021/06/07 08:08:45;;;;;;;16.17;6.55;;;;;;;13.63;100.00;94254.88;5073783;28;20245;-81
2021/06/07 08:11:11;;;;;;;18.33;7.55;;;;;;;13.83;100.00;94251.41;5073756;28;20673;-80
2021/06/07 08:13:39;;;;;;;15.43;7.10;;;;;;;13.67;100.00;94256.09;5073590;28;20194;-81
2021/06/07 08:16:06;;;;;;;16.90;7.50;;;;;;;13.66;100.00;94251.06;5074087;28;20202;-81
2021/06/07 08:18:32;;;;;;;17.83;8.18;;;;;;;13.60;100.00;94246.63;5073757;28;20504;-83
2021/06/07 08:21:00;;;;;;;24.67;9.25;;;;;;;13.62;100.00;94250.66;5073420;28;20205;-82
2021/06/07 08:23:26;;;;;;;23.40;10.52;;;;;;;13.54;100.00;94253.53;5072682;28;20449;-81
2021/06/07 08:25:52;;;;;;;25.75;9.18;;;;;;;13.67;100.00;94252.66;5073365;28;20229;-81
2021/06/07 08:28:18;;;;;;;22.45;9.23;;;;;;;13.52;100.00;94255.53;5073542;28;20238;-79
2021/06/07 08:30:46;;;;;;;26.77;8.95;;;;;;;13.61;100.00;94261.38;5073594;28;20290;-80
2021/06/07 08:33:12;;;;;;;18.52;7.55;;;;;;;13.78;100.00;94253.84;5073473;28;20256;-81
2021/06/07 08:35:39;;;;;;;20.20;9.30;;;;;;;13.72;100.00;94257.28;5073307;28;20252;-80
2021/06/07 08:38:05;;;;;;;18.92;8.55;;;;;;;13.70;100.00;94257.50;5073182;28;20558;-82
2021/06/07 08:40:32;;;;;;;20.10;8.52;;;;;;;13.79;100.00;94252.81;5073183;28;20235;-81
2021/06/07 08:42:58;;;;;;;22.73;9.40;;;;;;;13.87;100.00;94253.41;5072900;28;20207;-82
2021/06/07 08:45:26;;;;;;;24.67;9.35;;;;;;;13.81;100.00;94256.84;5073366;28;20199;-83
2021/06/07 08:47:54;;;;;;;18.67;8.50;;;;;;;13.91;100.00;94259.03;5073146;28;20249;-82
2021/06/07 08:50:23;;;;;;;21.17;8.60;;;;;;;13.80;100.00;94260.47;5073165;28;20263;-81
2021/06/07 08:52:49;;;;;;;16.40;7.72;;;;;;;13.79;100.00;94265.94;5080247;28;20247;-81
2021/06/07 08:55:19;;;;;;;21.30;8.98;;;;;;;13.73;100.00;94261.53;5093680;28;20202;-82
2021/06/07 08:57:47;;;;;;;21.08;8.32;;;;;;;13.87;100.00;94252.56;5093433;28;20198;-81
2021/06/07 09:00:15;;;;;;;14.27;6.45;;;;;;;14.05;100.00;94257.13;5093077;28;20197;-80
2021/06/07 09:02:43;;;;;;;15.45;7.20;;;;;;;14.38;100.00;94261.41;5093130;28;20198;-80
2021/06/07 09:05:12;;;;;;;9.80;4.43;;;;;;;14.51;100.00;94258.69;5088663;28;20198;-80
2021/06/07 09:07:51;;;;;;;8.75;5.70;;;;;;;14.74;100.00;94260.78;5092961;28;20232;-81
2021/06/07 09:10:17;;;;;;;6.80;3.22;;;;;;;14.94;100.00;94258.00;5093172;28;20198;-81
2021/06/07 09:12:44;;;;;;;5.53;2.88;;;;;;;14.85;100.00;94255.84;5093159;28;20210;-80
2021/06/07 09:15:27;;;;;;;5.20;2.72;;;;;;;14.74;100.00;94258.16;5092830;28;20552;-80
2021/06/07 09:17:54;;;;;;;4.78;2.78;;;;;;;14.88;100.00;94263.31;5092819;28;20283;-83
2021/06/07 09:20:23;;;;;;;4.05;2.40;;;;;;;15.01;100.00;94260.56;5093057;28;20200;-82
2021/06/07 09:22:51;;;;;;;5.15;2.08;;;;;;;15.14;100.00;94252.56;5092653;28;20198;-78
2021/06/07 09:25:19;;;;;;;4.50;2.63;;;;;;;15.08;100.00;94257.88;5093090;28;20592;-82
2021/06/07 09:28:11;;;;;;;3.92;2.33;;;;;;;14.96;100.00;94255.16;5092705;28;20226;-81
2021/06/07 09:30:42;;;;;;;2.88;2.10;;;;;;;15.06;100.00;94249.41;5092703;28;20293;-81
2021/06/07 09:33:30;;;;;;;2.90;1.90;;;;;;;15.19;100.00;94257.19;5092675;28;20699;-82
2021/06/07 09:36:14;;;;;;;2.78;1.60;;;;;;;15.31;100.00;94259.91;5092768;28;20221;-82
2021/06/07 09:39:02;;;;;;;3.90;2.10;;;;;;;15.68;100.00;94257.28;5092693;28;20208;-81
2021/06/07 09:41:29;;;;;;;2.30;1.48;;;;;;;15.85;100.00;94257.50;5092655;28;20744;-82
2021/06/07 09:43:58;;;;;;;2.42;2.00;;;;;;;15.72;100.00;94254.00;5092751;28;20194;-80
2021/06/07 09:46:26;;;;;;;3.17;2.22;;;;;;;15.64;100.00;94256.91;5092670;28;20217;-84
2021/06/07 09:49:05;;;;;;;5.57;3.00;;;;;;;14.75;100.00;94265.00;5092758;28;20259;-82
2021/06/07 09:51:33;;;;;;;4.93;3.35;;;;;;;14.88;100.00;94266.72;5092616;28;20205;-82
2021/06/07 09:53:59;;;;;;;4.97;3.30;;;;;;;15.23;100.00;94265.44;5093388;28;20679;-83
2021/06/07 09:56:26;;;;;;;3.95;2.95;;;;;;;15.34;100.00;94264.72;5096662;28;20202;-83
2021/06/07 09:58:53;;;;;;;6.22;3.88;;;;;;;15.19;100.00;94267.69;5096730;28;20198;-82
2021/06/07 10:01:23;;;;;;;6.80;3.92;;;;;;;15.15;100.00;94264.69;5096443;28;20202;-78
2021/06/07 10:03:54;;;;;;;7.60;4.50;;;;;;;15.24;100.00;94267.03;5096104;28;20556;-79
2021/06/07 10:06:23;;;;;;;8.80;4.55;;;;;;;15.34;100.00;94268.16;5096543;28;20201;-77
2021/06/07 10:08:56;;;;;;;9.82;4.68;;;;;;;15.85;100.00;94268.03;5096342;28;20271;-79
2021/06/07 10:11:24;;;;;;;6.88;4.22;;;;;;;16.49;100.00;94263.16;5096308;28;20201;-82
2021/06/07 10:14:05;;;;;;;5.57;3.58;;;;;;;16.71;100.00;94268.72;5096183;28;20798;-80
2021/06/07 10:16:36;;;;;;;5.35;3.00;;;;;;;17.14;100.00;94262.38;5096232;28;20225;-82
2021/06/07 10:19:06;;;;;;;4.80;2.95;;;;;;;17.43;100.00;94264.34;5096405;28;20210;-81
2021/06/07 10:21:40;;;;;;;4.93;2.83;;;;;;;16.96;100.00;94268.56;5095760;28;20924;-82
2021/06/07 10:24:07;;;;;;;4.38;3.00;;;;;;;17.16;100.00;94267.44;5096110;28;20237;-81
2021/06/07 10:26:34;;;;;;;3.75;2.58;;;;;;;17.30;100.00;94263.56;5095978;28;20568;-82
2021/06/07 10:29:00;;;;;;;3.15;2.03;;;;;;;17.49;100.00;94261.56;5095601;28;20691;-82
2021/06/07 10:31:26;;;;;;;4.25;2.80;;;;;;;17.31;100.00;94256.44;5095997;28;20248;-82
2021/06/07 10:33:58;;;;;;;3.90;2.65;;;;;;;17.46;100.00;94266.53;5095904;28;20574;-82
2021/06/07 10:36:36;;;;;;;5.25;2.80;;;;;;;17.35;100.00;94260.19;5095807;28;20198;-83
2021/06/07 10:39:29;;;;;;;3.47;2.67;;;;;;;17.38;100.00;94257.91;5095740;28;20206;-81
2021/06/07 10:42:17;;;;;;;5.78;3.17;;;;;;;16.80;100.00;94258.66;5095990;28;20198;-82
2021/06/07 10:44:46;;;;;;;7.57;3.58;;;;;;;16.75;100.00;94266.44;5095895;28;20198;-81
2021/06/07 10:47:15;;;;;;;7.25;3.47;;;;;;;16.78;100.00;94263.34;5095567;28;20663;-83
2021/06/07 10:49:44;;;;;;;6.25;4.03;;;;;;;16.62;100.00;94264.78;5095459;28;20675;-81
2021/06/07 10:52:15;;;;;;;5.60;3.83;;;;;;;16.84;100.00;94262.44;5095673;28;20341;-82
2021/06/07 10:54:43;;;;;;;6.88;4.03;;;;;;;16.88;100.00;94271.53;5096152;28;20198;-81
2021/06/07 10:57:37;;;;;;;7.47;4.07;;;;;;;16.94;100.00;94264.56;5095239;28;20672;-82
2021/06/07 11:00:13;;;;;;;7.85;4.88;;;;;;;17.31;100.00;94265.13;5091757;28;20591;-83
2021/06/07 11:02:42;;;;;;;7.75;5.03;;;;;;;17.14;100.00;94266.88;5095307;28;20652;-83
2021/06/07 11:05:12;;;;;;;8.02;4.93;;;;;;;16.61;100.00;94269.25;5095223;28;20263;-82
2021/06/07 11:07:40;;;;;;;7.47;5.07;;;;;;;16.29;100.00;94268.72;5095626;28;20277;-82
2021/06/07 11:10:27;;;;;;;9.20;5.88;;;;;;;16.48;100.00;94272.09;5095584;28;20219;-83
2021/06/07 11:12:56;;;;;;;9.65;5.70;;;;;;;16.78;100.00;94263.34;5095869;28;20194;-83
2021/06/07 11:15:24;;;;;;;11.68;5.82;;;;;;;17.14;100.00;94259.75;5095204;28;20194;-82
2021/06/07 11:17:52;;;;;;;10.95;6.00;;;;;;;17.08;100.00;94265.94;5094216;28;20285;-85